Time;durP1;ratioP1;P1;durP2;ratioP2;P2;SDS_P1;SDS_P2;PMS_P1;PMS_P2;Temp;Humidity;BMP_temperature;BMP_pressure;BME280_temperature;BME280_humidity;BME280_pressure;Samples;Min_cycle;Max_cycle;Signal;HPM_P1;HPM_P2
2023/01/18 00:01:13;;;;;;;14.87;7.05;;;0.20;99.90;;;;;;490037;242;27510;-73
2023/01/18 00:03:14;;;;;;;15.68;8.18;;;0.20;99.90;;;;;;490038;242;27568;-73
2023/01/18 00:05:15;;;;;;;15.15;7.25;;;0.20;99.90;;;;;;490048;242;27429;-73
2023/01/18 00:07:16;;;;;;;16.62;8.07;;;0.10;99.90;;;;;;490064;242;27389;-73
2023/01/18 00:09:18;;;;;;;20.55;8.05;;;0.20;99.90;;;;;;490072;242;27628;-73
2023/01/18 00:11:19;;;;;;;19.60;7.75;;;0.10;99.90;;;;;;490073;242;27477;-73
2023/01/18 00:13:20;;;;;;;13.55;7.70;;;0.10;99.90;;;;;;490063;242;28055;-73
2023/01/18 00:15:21;;;;;;;17.77;8.00;;;0.10;99.90;;;;;;490072;242;28084;-73
2023/01/18 00:17:23;;;;;;;13.68;7.80;;;0.10;99.90;;;;;;490068;242;28031;-73
2023/01/18 00:19:24;;;;;;;14.95;7.57;;;0.20;99.90;;;;;;490058;242;27588;-73
2023/01/18 00:21:25;;;;;;;15.35;8.32;;;0.10;99.90;;;;;;490100;242;27560;-73
2023/01/18 00:23:26;;;;;;;12.48;7.55;;;0.10;99.90;;;;;;490094;242;27597;-73
2023/01/18 00:25:28;;;;;;;13.40;8.13;;;0.10;99.90;;;;;;490085;242;27529;-73
2023/01/18 00:27:29;;;;;;;15.77;8.18;;;0.10;99.90;;;;;;490098;242;27487;-73
2023/01/18 00:29:30;;;;;;;17.90;9.52;;;0.10;99.90;;;;;;490074;242;27521;-73
2023/01/18 00:31:32;;;;;;;14.02;8.20;;;0.10;99.90;;;;;;490064;242;27466;-73
2023/01/18 00:33:33;;;;;;;9.13;6.50;;;0.10;99.90;;;;;;490049;242;27984;-73
2023/01/18 00:35:34;;;;;;;12.45;6.87;;;0.10;99.90;;;;;;490102;242;27993;-73
2023/01/18 00:37:35;;;;;;;9.35;6.30;;;0.10;99.90;;;;;;490095;242;28039;-73
2023/01/18 00:39:36;;;;;;;11.80;6.70;;;0.10;99.90;;;;;;490132;242;27942;-72
2023/01/18 00:43:37;;;;;;;11.27;7.30;;;0.00;99.90;;;;;;490106;242;27470;-73
2023/01/18 00:43:39;;;;;;;8.57;6.40;;;0.00;99.90;;;;;;487959;242;27496;-73
2023/01/18 00:45:40;;;;;;;11.05;7.25;;;0.10;99.90;;;;;;490100;242;27509;-73
2023/01/18 00:47:41;;;;;;;14.10;6.22;;;0.10;99.90;;;;;;490074;242;27546;-73
2023/01/18 00:49:43;;;;;;;10.68;6.95;;;0.10;99.90;;;;;;490095;242;27533;-72
2023/01/18 00:51:44;;;;;;;13.38;7.45;;;0.10;99.90;;;;;;490096;242;27545;-73
2023/01/18 00:53:46;;;;;;;12.93;7.28;;;0.00;99.90;;;;;;490087;242;27615;-74
2023/01/18 00:55:46;;;;;;;9.68;6.85;;;0.00;99.90;;;;;;490091;242;27984;-73
2023/01/18 00:57:48;;;;;;;7.78;6.60;;;0.00;99.90;;;;;;490099;242;27922;-73
2023/01/18 00:59:49;;;;;;;15.60;7.18;;;0.00;99.90;;;;;;490084;242;28003;-73
2023/01/18 01:01:50;;;;;;;8.18;6.32;;;-0.10;99.90;;;;;;490060;242;29019;-73
2023/01/18 01:08:31;;;;;;;10.07;6.95;;;0.10;99.90;;;;;;490047;242;27416;-73
2023/01/18 01:10:32;;;;;;;9.25;6.55;;;0.20;99.90;;;;;;490094;242;27589;-73
2023/01/18 01:26:30;;;;;;;16.05;5.45;;;0.30;99.90;;;;;;490078;242;27521;-73
2023/01/18 01:28:31;;;;;;;12.82;5.53;;;0.30;99.90;;;;;;490078;242;27429;-73
2023/01/18 01:30:33;;;;;;;7.78;5.80;;;0.30;99.90;;;;;;490085;242;27399;-73
2023/01/18 01:32:34;;;;;;;9.93;6.07;;;0.30;99.90;;;;;;490097;242;27675;-73
2023/01/18 01:34:35;;;;;;;11.63;6.00;;;0.40;99.90;;;;;;490030;242;27490;-73
2023/01/18 01:36:36;;;;;;;10.20;6.20;;;0.40;99.90;;;;;;490083;242;27609;-73
2023/01/18 01:38:38;;;;;;;10.73;5.60;;;0.40;99.90;;;;;;490102;242;27991;-73
2023/01/18 01:40:39;;;;;;;6.55;5.45;;;0.40;99.90;;;;;;490064;242;27920;-73
2023/01/18 01:42:40;;;;;;;9.48;6.07;;;0.40;99.90;;;;;;490055;242;28062;-73
2023/01/18 01:44:41;;;;;;;9.23;5.57;;;0.40;99.90;;;;;;490039;242;29015;-73
2023/01/18 01:46:43;;;;;;;6.90;5.43;;;0.40;99.90;;;;;;490063;242;27414;-73
2023/01/18 01:48:44;;;;;;;7.18;5.10;;;0.40;99.90;;;;;;490129;242;27624;-73
2023/01/18 01:50:45;;;;;;;9.75;6.05;;;0.40;99.90;;;;;;490095;242;27466;-74
2023/01/18 01:52:46;;;;;;;6.37;5.37;;;0.40;99.90;;;;;;490098;242;27513;-73
2023/01/18 01:54:48;;;;;;;5.95;4.87;;;0.40;99.90;;;;;;490091;242;27476;-73
2023/01/18 01:56:49;;;;;;;8.38;5.78;;;0.40;99.90;;;;;;490114;242;27432;-73
2023/01/18 01:58:50;;;;;;;11.00;6.72;;;0.40;99.90;;;;;;490098;242;27643;-73
2023/01/18 02:00:53;;;;;;;8.45;6.00;;;0.50;99.90;;;;;;490064;242;27561;-73
2023/01/18 02:02:53;;;;;;;7.53;5.35;;;0.50;99.90;;;;;;490008;242;27529;-73
2023/01/18 02:04:54;;;;;;;6.28;5.30;;;0.40;99.90;;;;;;489987;242;27531;-73
2023/01/18 02:06:55;;;;;;;9.02;6.00;;;0.40;99.90;;;;;;490078;242;28097;-73
2023/01/18 02:08:56;;;;;;;10.40;5.72;;;0.40;99.90;;;;;;490061;242;28016;-73
2023/01/18 02:10:58;;;;;;;10.57;6.47;;;0.40;99.90;;;;;;490129;242;27931;-73
2023/01/18 02:12:59;;;;;;;10.10;5.90;;;0.50;99.90;;;;;;490084;242;27509;-73
2023/01/18 02:15:00;;;;;;;11.30;6.70;;;0.40;99.90;;;;;;490057;242;27481;-73
2023/01/18 02:17:01;;;;;;;11.12;6.95;;;0.40;99.90;;;;;;490063;242;27512;-73
2023/01/18 02:19:03;;;;;;;7.60;5.50;;;0.40;99.90;;;;;;490124;242;27452;-73
2023/01/18 02:21:04;;;;;;;5.87;4.95;;;0.40;99.90;;;;;;490077;242;27478;-73
2023/01/18 02:23:06;;;;;;;9.30;6.15;;;0.40;99.90;;;;;;490077;242;27509;-73
2023/01/18 02:25:06;;;;;;;9.52;5.47;;;0.40;99.90;;;;;;490057;242;27514;-73
2023/01/18 02:27:08;;;;;;;10.93;6.72;;;0.40;99.90;;;;;;490078;242;27589;-73
2023/01/18 02:29:09;;;;;;;6.72;4.80;;;0.40;99.90;;;;;;490091;242;28071;-73
2023/01/18 02:31:10;;;;;;;8.05;5.53;;;0.40;99.90;;;;;;490082;242;27929;-73
2023/01/18 02:33:11;;;;;;;8.70;6.20;;;0.40;99.90;;;;;;490059;242;27988;-73
2023/01/18 02:35:13;;;;;;;6.55;5.32;;;0.40;99.90;;;;;;489875;242;28082;-73
2023/01/18 02:37:14;;;;;;;6.47;5.50;;;0.40;99.90;;;;;;490069;242;27592;-73
2023/01/18 02:39:21;;;;;;;8.48;5.22;;;0.40;99.90;;;;;;490092;242;27417;-73
2023/01/18 02:41:16;;;;;;;6.20;5.53;;;0.40;99.90;;;;;;489491;242;27518;-73
2023/01/18 02:47:57;;;;;;;7.45;5.43;;;0.50;99.90;;;;;;490067;242;27477;-73
2023/01/18 02:49:58;;;;;;;6.37;4.72;;;0.40;99.90;;;;;;490078;242;27624;-73
2023/01/18 02:52:00;;;;;;;7.07;5.62;;;0.40;99.90;;;;;;490064;242;27608;-73
2023/01/18 02:54:01;;;;;;;9.35;6.40;;;0.40;99.90;;;;;;490090;242;27981;-73
2023/01/18 02:56:02;;;;;;;8.48;5.10;;;0.40;99.90;;;;;;490082;242;28009;-73
2023/01/18 02:58:03;;;;;;;7.62;4.72;;;0.40;99.90;;;;;;490091;242;28693;-73
2023/01/18 03:00:05;;;;;;;7.97;5.30;;;0.40;99.90;;;;;;490081;242;28029;-73
2023/01/18 03:02:06;;;;;;;7.80;5.62;;;0.40;99.90;;;;;;490091;242;27526;-73
2023/01/18 03:04:07;;;;;;;7.95;4.97;;;0.40;99.90;;;;;;490062;242;27418;-73
2023/01/18 03:06:08;;;;;;;6.87;5.00;;;0.40;99.90;;;;;;490077;242;27513;-73
2023/01/18 03:08:10;;;;;;;7.70;5.25;;;0.40;99.90;;;;;;490080;242;27510;-73
2023/01/18 03:10:11;;;;;;;9.02;5.20;;;0.50;99.90;;;;;;490071;242;27478;-73
2023/01/18 03:12:12;;;;;;;11.40;5.62;;;0.50;99.90;;;;;;490056;242;27517;-73
2023/01/18 03:14:13;;;;;;;9.60;6.20;;;0.50;99.90;;;;;;490076;242;27485;-73
2023/01/18 03:16:15;;;;;;;8.13;5.32;;;0.50;99.90;;;;;;490094;242;27524;-73
2023/01/18 03:18:16;;;;;;;7.22;5.10;;;0.50;99.90;;;;;;490080;242;27526;-73
2023/01/18 03:20:17;;;;;;;8.88;5.28;;;0.40;99.90;;;;;;490103;242;28041;-73
2023/01/18 03:23:36;;;;;;;7.65;5.20;;;0.40;99.90;;;;;;490108;242;28012;-73
2023/01/18 03:24:20;;;;;;;5.40;4.70;;;0.40;99.90;;;;;;487992;242;28030;-73
2023/01/18 03:26:21;;;;;;;10.63;5.30;;;0.40;99.90;;;;;;490106;242;27988;-73
2023/01/18 03:35:25;;;;;;;8.63;5.28;;;0.40;99.90;;;;;;490058;242;27549;-73
2023/01/18 03:37:22;;;;;;;6.68;4.70;;;0.40;99.90;;;;;;489696;242;27471;-73
2023/01/18 03:39:23;;;;;;;6.22;4.90;;;0.30;99.90;;;;;;490062;242;27510;-73
2023/01/18 03:41:25;;;;;;;7.78;5.10;;;0.30;99.90;;;;;;490103;242;27441;-73
2023/01/18 03:43:26;;;;;;;8.10;5.55;;;0.30;99.90;;;;;;490071;242;28111;-73
2023/01/18 03:45:27;;;;;;;8.63;4.93;;;0.20;99.90;;;;;;490070;242;27603;-73
2023/01/18 03:47:28;;;;;;;7.37;5.20;;;0.20;99.90;;;;;;490091;242;27553;-73
2023/01/18 03:49:30;;;;;;;7.82;5.03;;;0.20;99.90;;;;;;490077;242;27983;-73
2023/01/18 03:51:31;;;;;;;7.50;4.90;;;0.20;99.90;;;;;;490092;242;28111;-73
2023/01/18 03:53:33;;;;;;;5.28;4.53;;;0.20;99.90;;;;;;490087;242;27859;-73
2023/01/18 03:55:33;;;;;;;7.07;4.85;;;0.10;99.90;;;;;;489983;242;28016;-73
2023/01/18 03:57:35;;;;;;;6.45;4.55;;;0.20;99.90;;;;;;490066;242;27473;-73
2023/01/18 03:59:36;;;;;;;10.30;5.30;;;0.10;99.90;;;;;;490067;242;27510;-71
2023/01/18 04:01:37;;;;;;;6.25;5.10;;;0.10;99.90;;;;;;490082;242;27540;-73
2023/01/18 04:03:38;;;;;;;5.68;4.47;;;0.00;99.90;;;;;;490063;242;27481;-73
2023/01/18 04:05:40;;;;;;;6.05;4.60;;;0.00;99.90;;;;;;490044;242;27599;-73
2023/01/18 04:07:41;;;;;;;5.12;4.62;;;0.00;99.90;;;;;;490058;242;27573;-73
2023/01/18 04:09:42;;;;;;;7.90;4.95;;;0.00;99.90;;;;;;490058;242;27525;-73
2023/01/18 04:11:43;;;;;;;6.43;5.00;;;0.00;99.90;;;;;;490078;242;27510;-72
2023/01/18 04:13:45;;;;;;;9.95;5.45;;;0.00;99.90;;;;;;490074;242;27481;-74
2023/01/18 04:15:46;;;;;;;7.25;4.45;;;-0.10;99.90;;;;;;490075;242;27565;-73
2023/01/18 04:17:51;;;;;;;5.18;4.20;;;-0.10;99.90;;;;;;490091;242;27992;-73
2023/01/18 04:19:48;;;;;;;4.68;4.20;;;-0.10;99.90;;;;;;489687;242;28068;-73
2023/01/18 04:21:50;;;;;;;6.43;4.30;;;0.00;99.90;;;;;;490063;242;27516;-72
2023/01/18 04:23:51;;;;;;;5.15;4.47;;;0.00;99.90;;;;;;490101;242;27485;-73
2023/01/18 04:25:52;;;;;;;6.95;4.72;;;0.00;99.90;;;;;;490065;242;27597;-73
2023/01/18 04:27:53;;;;;;;6.20;4.97;;;0.00;99.90;;;;;;490085;242;27541;-73
2023/01/18 04:29:57;;;;;;;6.37;4.32;;;-0.10;99.90;;;;;;490096;242;27497;-73
2023/01/18 04:31:56;;;;;;;7.10;5.95;;;-0.20;99.90;;;;;;489927;242;27766;-73
2023/01/18 04:33:57;;;;;;;8.15;4.78;;;-0.30;99.90;;;;;;490084;242;27537;-73
2023/01/18 04:35:58;;;;;;;5.90;4.75;;;-0.40;99.90;;;;;;490072;242;27618;-73
2023/01/18 04:38:00;;;;;;;7.07;4.65;;;-0.30;99.90;;;;;;490092;242;27572;-73
2023/01/18 04:40:01;;;;;;;8.30;5.00;;;-0.20;99.90;;;;;;490107;242;27994;-73
2023/01/18 04:42:02;;;;;;;7.95;5.43;;;-0.20;99.90;;;;;;490091;242;27980;-73
2023/01/18 04:44:03;;;;;;;6.10;4.45;;;-0.30;99.90;;;;;;490090;242;28089;-73
2023/01/18 04:46:05;;;;;;;5.97;4.10;;;-0.30;99.90;;;;;;490128;242;27509;-73
2023/01/18 04:48:06;;;;;;;5.30;4.45;;;-0.30;99.90;;;;;;490141;242;27382;-73
2023/01/18 04:50:07;;;;;;;6.62;5.40;;;-0.20;99.90;;;;;;490095;242;27606;-73
2023/01/18 04:52:08;;;;;;;5.90;4.50;;;-0.20;99.90;;;;;;490097;242;27873;-72
2023/01/18 04:54:10;;;;;;;7.10;4.30;;;-0.10;99.90;;;;;;490121;242;27556;-73
2023/01/18 04:56:11;;;;;;;5.90;4.28;;;-0.20;99.90;;;;;;490097;242;27518;-73
2023/01/18 04:58:12;;;;;;;6.47;4.70;;;-0.10;99.90;;;;;;490108;242;27466;-72
2023/01/18 05:00:14;;;;;;;6.80;4.20;;;-0.10;99.90;;;;;;490075;242;27993;-73
2023/01/18 05:02:15;;;;;;;5.32;4.22;;;-0.10;99.90;;;;;;490077;242;28048;-73
2023/01/18 05:04:16;;;;;;;6.80;4.55;;;-0.10;99.90;;;;;;490088;242;27906;-73
2023/01/18 05:06:20;;;;;;;4.85;4.05;;;-0.10;99.90;;;;;;490096;242;27545;-73
2023/01/18 05:08:18;;;;;;;4.82;3.90;;;-0.10;99.90;;;;;;489852;242;27635;-73
2023/01/18 05:10:20;;;;;;;6.30;4.50;;;-0.10;99.90;;;;;;490080;242;27608;-73
2023/01/18 05:12:21;;;;;;;7.10;4.05;;;-0.10;99.90;;;;;;490097;242;27893;-73
2023/01/18 05:14:22;;;;;;;5.60;4.43;;;-0.10;99.90;;;;;;490093;242;27584;-73
2023/01/18 05:16:23;;;;;;;5.28;4.55;;;-0.10;99.90;;;;;;490106;242;27529;-73
2023/01/18 05:18:25;;;;;;;5.28;4.05;;;-0.10;99.90;;;;;;490092;242;27483;-73
2023/01/18 05:20:26;;;;;;;5.20;3.85;;;-0.10;99.90;;;;;;490085;242;28109;-73
2023/01/18 05:22:31;;;;;;;7.90;5.35;;;-0.10;99.90;;;;;;490092;242;28144;-73
2023/01/18 05:24:29;;;;;;;6.35;4.07;;;-0.20;99.90;;;;;;489729;242;27489;-73
2023/01/18 05:26:30;;;;;;;4.53;4.12;;;-0.20;99.90;;;;;;490089;242;27605;-73
2023/01/18 05:28:31;;;;;;;6.45;4.93;;;-0.10;99.90;;;;;;490080;242;27478;-73
2023/01/18 05:30:32;;;;;;;6.68;4.30;;;-0.20;99.90;;;;;;490086;242;27588;-73
2023/01/18 05:32:34;;;;;;;6.80;4.45;;;-0.20;99.90;;;;;;490090;242;27770;-73
2023/01/18 05:34:35;;;;;;;7.28;3.90;;;-0.20;99.90;;;;;;490100;242;27393;-73
2023/01/18 05:36:36;;;;;;;13.48;4.78;;;-0.20;99.90;;;;;;490099;242;27620;-73
2023/01/18 05:38:37;;;;;;;5.65;4.20;;;-0.20;99.90;;;;;;490103;242;27929;-73
2023/01/18 05:40:39;;;;;;;5.72;4.57;;;-0.20;99.90;;;;;;490049;242;28063;-73
2023/01/18 05:42:40;;;;;;;8.98;5.15;;;-0.20;99.90;;;;;;490089;242;28015;-73
2023/01/18 05:44:41;;;;;;;4.95;4.18;;;-0.20;99.90;;;;;;490066;242;27470;-73
2023/01/18 05:46:42;;;;;;;7.30;4.95;;;-0.20;99.90;;;;;;490092;242;27502;-73
2023/01/18 05:48:44;;;;;;;6.20;4.60;;;-0.20;99.90;;;;;;490075;242;27565;-73
2023/01/18 05:50:45;;;;;;;7.37;5.03;;;-0.20;99.90;;;;;;490084;242;27604;-73
2023/01/18 05:52:46;;;;;;;5.55;4.40;;;-0.10;99.90;;;;;;490107;242;27875;-73
2023/01/18 05:54:47;;;;;;;10.88;4.78;;;-0.20;99.90;;;;;;490067;242;27530;-73
2023/01/18 05:56:49;;;;;;;7.82;5.03;;;-0.20;99.90;;;;;;490066;242;27521;-73
2023/01/18 05:58:50;;;;;;;6.95;4.87;;;-0.20;99.90;;;;;;490081;242;27865;-73
2023/01/18 06:00:51;;;;;;;5.22;4.53;;;-0.30;99.90;;;;;;490073;242;27914;-73
2023/01/18 06:02:52;;;;;;;7.55;5.20;;;-0.30;99.90;;;;;;490085;242;27979;-73
2023/01/18 06:04:54;;;;;;;9.07;4.55;;;-0.20;99.90;;;;;;490077;242;27494;-73
2023/01/18 06:06:55;;;;;;;7.18;4.15;;;-0.20;99.90;;;;;;490089;242;27521;-73
2023/01/18 06:08:56;;;;;;;6.25;4.68;;;-0.20;99.90;;;;;;490071;242;27560;-73
2023/01/18 06:10:57;;;;;;;4.40;4.00;;;-0.20;99.90;;;;;;490056;240;27422;-73
2023/01/18 06:12:59;;;;;;;5.43;4.15;;;-0.20;99.90;;;;;;490074;242;27461;-73
2023/01/18 06:15:00;;;;;;;7.62;4.35;;;-0.20;99.90;;;;;;490110;242;27568;-73
2023/01/18 06:17:01;;;;;;;5.87;4.60;;;-0.20;99.90;;;;;;490074;242;27532;-73
2023/01/18 06:19:03;;;;;;;6.03;4.45;;;-0.20;99.90;;;;;;490089;242;28039;-73
2023/01/18 06:21:04;;;;;;;5.87;4.20;;;-0.20;99.90;;;;;;490105;242;27918;-73
2023/01/18 06:23:05;;;;;;;5.57;4.57;;;-0.20;99.90;;;;;;490104;242;29087;-73
2023/01/18 06:25:06;;;;;;;4.45;3.97;;;-0.20;99.90;;;;;;490067;242;27476;-73
2023/01/18 06:27:07;;;;;;;5.57;4.10;;;-0.10;99.90;;;;;;490088;242;27514;-73
2023/01/18 06:29:09;;;;;;;6.20;4.60;;;-0.10;99.90;;;;;;490078;242;27498;-73
2023/01/18 06:31:10;;;;;;;4.68;4.10;;;-0.10;99.90;;;;;;490082;242;27482;-73
2023/01/18 06:33:11;;;;;;;7.37;4.65;;;-0.10;99.90;;;;;;490032;242;27553;-73
2023/01/18 06:35:12;;;;;;;4.60;3.78;;;-0.10;99.90;;;;;;489979;242;27544;-73
2023/01/18 06:37:14;;;;;;;5.60;4.10;;;-0.10;99.90;;;;;;489975;242;27516;-73
2023/01/18 06:39:15;;;;;;;6.62;4.53;;;-0.10;99.90;;;;;;490062;242;28166;-73
2023/01/18 06:41:16;;;;;;;5.10;3.92;;;0.00;99.90;;;;;;490074;242;27915;-72
2023/01/18 06:43:17;;;;;;;5.95;4.50;;;-0.10;99.90;;;;;;490060;242;28024;-73
2023/01/18 06:45:20;;;;;;;4.53;4.10;;;0.00;99.90;;;;;;490025;242;27461;-72
2023/01/18 06:47:20;;;;;;;6.37;4.05;;;-0.10;99.90;;;;;;489900;242;27552;-73
2023/01/18 06:49:21;;;;;;;6.70;5.00;;;-0.10;99.90;;;;;;490052;242;27496;-73
2023/01/18 06:51:22;;;;;;;7.45;4.60;;;-0.10;99.90;;;;;;490087;242;27474;-73
2023/01/18 06:53:24;;;;;;;9.07;4.68;;;-0.10;99.90;;;;;;490087;242;27541;-73
2023/01/18 06:55:25;;;;;;;5.15;4.10;;;-0.10;99.90;;;;;;490094;242;27494;-73
2023/01/18 06:57:26;;;;;;;6.87;3.70;;;-0.10;99.90;;;;;;490079;242;27618;-73
2023/01/18 06:59:27;;;;;;;5.15;3.92;;;-0.10;99.90;;;;;;490076;242;27623;-73
2023/01/18 07:01:29;;;;;;;4.40;3.37;;;-0.10;99.90;;;;;;490064;242;27962;-73
2023/01/18 07:03:30;;;;;;;8.40;4.32;;;-0.10;99.90;;;;;;490081;242;28004;-73
2023/01/18 07:05:31;;;;;;;5.82;4.05;;;-0.10;99.90;;;;;;490051;242;27494;-73
2023/01/18 07:07:32;;;;;;;6.97;4.20;;;-0.10;99.90;;;;;;490060;242;27498;-73
2023/01/18 07:09:34;;;;;;;8.30;4.22;;;-0.10;99.90;;;;;;490091;242;27496;-73
2023/01/18 07:11:36;;;;;;;5.85;4.03;;;-0.10;99.90;;;;;;490095;242;27386;-73
2023/01/18 07:13:42;;;;;;;6.47;4.10;;;-0.10;99.90;;;;;;490053;242;27433;-73
2023/01/18 07:15:37;;;;;;;4.60;3.72;;;-0.10;99.90;;;;;;489342;242;27628;-72
2023/01/18 07:17:39;;;;;;;7.68;4.50;;;-0.10;99.90;;;;;;490047;242;27525;-72
2023/01/18 07:19:40;;;;;;;6.80;4.35;;;-0.10;99.90;;;;;;490075;242;27639;-73
2023/01/18 07:21:41;;;;;;;6.07;4.43;;;-0.20;99.90;;;;;;490077;242;27845;-73
2023/01/18 07:23:42;;;;;;;8.30;4.70;;;-0.20;99.90;;;;;;490064;242;28007;-72
2023/01/18 07:25:44;;;;;;;5.03;4.28;;;-0.20;99.90;;;;;;490083;242;27406;-73
2023/01/18 07:27:45;;;;;;;7.25;4.72;;;-0.20;99.90;;;;;;490084;242;27608;-73
2023/01/18 07:29:46;;;;;;;6.07;4.10;;;-0.20;99.90;;;;;;490103;242;27522;-73
2023/01/18 07:31:47;;;;;;;6.57;4.60;;;-0.20;99.90;;;;;;490079;242;27440;-73
2023/01/18 07:33:49;;;;;;;4.20;3.80;;;-0.30;99.90;;;;;;490074;242;27529;-73
2023/01/18 07:35:50;;;;;;;6.60;4.15;;;-0.30;99.90;;;;;;490067;242;27497;-73
2023/01/18 07:37:55;;;;;;;7.32;4.50;;;-0.30;99.90;;;;;;490045;242;27605;-73
2023/01/18 07:39:53;;;;;;;6.50;4.20;;;-0.20;99.90;;;;;;489670;242;27600;-73
2023/01/18 07:41:54;;;;;;;5.37;4.15;;;-0.20;99.90;;;;;;490085;242;28124;-73
2023/01/18 07:43:55;;;;;;;5.07;4.07;;;-0.20;99.90;;;;;;490080;242;27923;-73
2023/01/18 07:45:57;;;;;;;4.90;4.40;;;-0.20;99.90;;;;;;490081;242;27643;-73
2023/01/18 07:47:58;;;;;;;5.12;4.12;;;-0.20;99.90;;;;;;490059;242;27525;-73
2023/01/18 07:49:59;;;;;;;8.05;4.20;;;-0.30;99.90;;;;;;490096;242;27430;-73
2023/01/18 07:52:00;;;;;;;7.70;4.32;;;-0.20;99.90;;;;;;490047;242;27522;-73
2023/01/18 07:54:01;;;;;;;5.43;3.97;;;-0.30;99.90;;;;;;490090;242;27647;-73
2023/01/18 07:56:03;;;;;;;10.82;4.57;;;-0.20;99.90;;;;;;490101;242;27494;-73
2023/01/18 07:58:04;;;;;;;10.20;4.45;;;-0.20;99.90;;;;;;490079;242;27513;-72
2023/01/18 08:00:09;;;;;;;5.03;4.10;;;-0.20;99.90;;;;;;490112;242;27981;-73
2023/01/18 08:02:11;;;;;;;4.47;3.78;;;-0.20;99.90;;;;;;490044;242;27433;-73
2023/01/18 08:04:10;;;;;;;6.57;3.72;;;-0.20;99.90;;;;;;489933;242;27588;-73
2023/01/18 08:06:17;;;;;;;4.60;3.92;;;-0.30;99.90;;;;;;490070;242;27510;-73
2023/01/18 08:08:19;;;;;;;4.70;4.10;;;-0.20;99.90;;;;;;490057;242;27477;-73
2023/01/18 08:10:20;;;;;;;5.65;3.72;;;-0.20;99.90;;;;;;490049;242;27602;-73
2023/01/18 08:12:21;;;;;;;4.72;4.18;;;-0.20;99.90;;;;;;489800;242;27509;-72
2023/01/18 08:14:22;;;;;;;4.20;3.80;;;-0.20;99.90;;;;;;489764;242;27586;-73
2023/01/18 08:16:25;;;;;;;6.15;3.60;;;-0.20;99.90;;;;;;490024;242;27615;-73
2023/01/18 08:18:25;;;;;;;4.35;3.87;;;-0.20;99.90;;;;;;489894;242;27476;-73
2023/01/18 08:20:26;;;;;;;6.25;4.32;;;-0.20;99.90;;;;;;490024;242;27996;-73
2023/01/18 08:22:27;;;;;;;8.93;4.80;;;-0.20;99.90;;;;;;490077;242;28077;-73
2023/01/18 08:24:29;;;;;;;6.82;4.35;;;-0.20;99.90;;;;;;490095;242;27953;-73
2023/01/18 08:26:30;;;;;;;9.30;4.65;;;-0.20;99.90;;;;;;490104;242;27526;-72
2023/01/18 08:28:31;;;;;;;5.10;4.60;;;-0.20;99.90;;;;;;490061;242;27555;-73
2023/01/18 08:30:32;;;;;;;7.75;4.40;;;-0.20;99.90;;;;;;490038;242;27536;-73
2023/01/18 08:32:34;;;;;;;7.40;5.05;;;-0.20;99.90;;;;;;490062;242;27991;-73
2023/01/18 08:34:35;;;;;;;5.20;3.85;;;-0.20;99.90;;;;;;490078;242;27481;-73
2023/01/18 08:36:36;;;;;;;10.77;4.35;;;-0.10;99.90;;;;;;490071;242;27541;-73
2023/01/18 08:38:37;;;;;;;5.65;3.85;;;-0.10;99.90;;;;;;490042;242;27557;-73
2023/01/18 08:40:39;;;;;;;10.57;4.95;;;-0.20;99.90;;;;;;490063;242;28004;-73
2023/01/18 08:42:40;;;;;;;7.28;4.80;;;-0.20;99.90;;;;;;490083;242;27981;-73
2023/01/18 08:44:41;;;;;;;10.38;5.22;;;-0.20;99.90;;;;;;490084;242;27482;-73
2023/01/18 08:46:42;;;;;;;9.48;4.30;;;-0.10;99.90;;;;;;490062;242;27528;-73
2023/01/18 08:48:44;;;;;;;8.63;4.12;;;-0.10;99.90;;;;;;490073;242;27565;-73
2023/01/18 08:50:45;;;;;;;5.40;4.50;;;-0.10;99.90;;;;;;490041;242;27506;-72
2023/01/18 08:52:46;;;;;;;5.72;4.70;;;-0.10;99.90;;;;;;490073;242;27957;-74
2023/01/18 08:54:47;;;;;;;10.30;5.60;;;-0.10;99.90;;;;;;490065;242;27577;-73
2023/01/18 08:56:49;;;;;;;5.70;4.25;;;-0.10;99.90;;;;;;490068;242;27524;-73
2023/01/18 08:58:53;;;;;;;8.13;4.20;;;-0.10;99.90;;;;;;490019;242;27948;-73
2023/01/18 09:00:52;;;;;;;5.87;4.30;;;-0.10;99.90;;;;;;489619;242;27975;-73
2023/01/18 09:02:52;;;;;;;6.53;3.92;;;-0.10;99.90;;;;;;490077;242;27429;-73
2023/01/18 09:04:54;;;;;;;5.70;4.12;;;-0.10;99.90;;;;;;490075;242;27553;-73
2023/01/18 09:06:55;;;;;;;4.20;3.87;;;-0.10;99.90;;;;;;490095;242;27507;-73
2023/01/18 09:08:56;;;;;;;7.25;4.25;;;0.00;99.90;;;;;;490080;242;27565;-73
2023/01/18 09:10:57;;;;;;;5.53;3.95;;;0.00;99.90;;;;;;490113;242;27643;-73
2023/01/18 09:12:59;;;;;;;12.70;4.28;;;0.10;99.90;;;;;;490081;242;27615;-73
2023/01/18 09:15:00;;;;;;;5.68;4.28;;;0.10;99.90;;;;;;490094;242;27402;-73
2023/01/18 09:17:01;;;;;;;8.52;5.05;;;0.10;99.90;;;;;;490109;242;27856;-73
2023/01/18 09:19:05;;;;;;;5.80;4.22;;;0.10;99.90;;;;;;490099;242;28025;-73
2023/01/18 09:21:04;;;;;;;6.40;4.78;;;0.10;99.90;;;;;;489897;242;28082;-73
2023/01/18 09:23:05;;;;;;;5.10;4.07;;;0.10;99.90;;;;;;490100;242;27980;-73
2023/01/18 09:25:06;;;;;;;9.25;4.07;;;0.10;99.90;;;;;;490079;242;27507;-73
2023/01/18 09:27:07;;;;;;;4.72;4.22;;;0.20;99.90;;;;;;490091;242;27625;-73
2023/01/18 09:29:09;;;;;;;6.03;3.65;;;0.20;99.90;;;;;;490085;242;27386;-73
2023/01/18 09:31:11;;;;;;;4.30;3.90;;;0.30;99.90;;;;;;490060;242;27502;-73
2023/01/18 09:33:11;;;;;;;8.48;4.62;;;0.30;99.90;;;;;;490071;242;27443;-73
2023/01/18 09:35:16;;;;;;;7.80;3.60;;;0.30;99.90;;;;;;490069;242;27482;-72
2023/01/18 09:37:14;;;;;;;6.97;4.50;;;0.30;99.90;;;;;;489729;242;27592;-72
2023/01/18 09:39:15;;;;;;;5.68;4.78;;;0.30;99.90;;;;;;490077;242;27466;-73
2023/01/18 09:41:16;;;;;;;7.95;4.20;;;0.30;99.90;;;;;;490109;242;27633;-73
2023/01/18 09:43:17;;;;;;;7.15;4.30;;;0.30;99.90;;;;;;490091;242;27440;-73
2023/01/18 09:45:19;;;;;;;5.37;4.82;;;0.30;99.90;;;;;;490116;242;27500;-73
2023/01/18 09:47:23;;;;;;;9.07;4.35;;;0.40;99.90;;;;;;490111;242;28071;-73
2023/01/18 09:49:21;;;;;;;7.07;4.47;;;0.40;99.90;;;;;;489667;242;27988;-73
2023/01/18 09:51:22;;;;;;;7.28;5.37;;;0.50;99.90;;;;;;490085;242;28157;-72
2023/01/18 09:53:24;;;;;;;5.97;4.30;;;0.50;99.90;;;;;;490097;242;28695;-73
2023/01/18 09:55:27;;;;;;;8.20;4.90;;;0.50;99.90;;;;;;490091;242;27456;-73
2023/01/18 09:57:26;;;;;;;13.60;4.90;;;0.60;99.90;;;;;;489927;242;27525;-73
2023/01/18 09:59:28;;;;;;;7.10;4.30;;;0.60;99.90;;;;;;490055;242;27429;-73
2023/01/18 10:01:29;;;;;;;9.68;4.40;;;0.60;99.90;;;;;;490008;242;27580;-73
2023/01/18 10:03:30;;;;;;;5.50;4.12;;;0.70;99.90;;;;;;490079;242;27434;-73
2023/01/18 10:05:31;;;;;;;6.93;4.28;;;0.70;99.90;;;;;;490079;242;27575;-72
2023/01/18 10:07:32;;;;;;;7.75;4.87;;;0.80;99.90;;;;;;490098;242;27596;-73
2023/01/18 10:09:34;;;;;;;6.75;4.00;;;0.80;99.00;;;;;;490086;242;27453;-73
2023/01/18 10:11:35;;;;;;;4.37;3.83;;;0.80;98.50;;;;;;490080;242;27631;-73
2023/01/18 10:13:37;;;;;;;4.95;4.03;;;0.90;99.40;;;;;;490098;242;27981;-73
2023/01/18 10:15:37;;;;;;;5.75;3.97;;;0.90;98.30;;;;;;490101;242;27913;-73
2023/01/18 10:17:39;;;;;;;5.70;4.37;;;1.00;99.30;;;;;;490052;242;27997;-73
2023/01/18 10:19:40;;;;;;;4.43;3.95;;;1.10;97.70;;;;;;490045;242;27924;-73
2023/01/18 10:21:41;;;;;;;7.62;5.22;;;1.10;97.80;;;;;;490051;242;27481;-73
2023/01/18 10:23:43;;;;;;;10.18;4.82;;;1.10;97.80;;;;;;490078;242;27612;-73
2023/01/18 10:25:44;;;;;;;9.55;5.82;;;1.10;96.90;;;;;;490095;242;27568;-73
2023/01/18 10:27:45;;;;;;;9.90;4.75;;;1.10;96.60;;;;;;490067;242;27521;-73
2023/01/18 10:29:46;;;;;;;12.05;5.32;;;1.20;97.00;;;;;;490061;242;27545;-73
2023/01/18 10:31:47;;;;;;;13.13;5.05;;;1.20;96.90;;;;;;490080;242;27452;-73
2023/01/18 10:33:49;;;;;;;7.43;5.20;;;1.20;96.80;;;;;;490087;242;27542;-74
2023/01/18 10:35:50;;;;;;;6.60;4.47;;;1.10;96.90;;;;;;490080;242;27478;-73
2023/01/18 10:37:51;;;;;;;5.72;3.95;;;1.00;95.60;;;;;;490068;242;27513;-73
2023/01/18 10:39:52;;;;;;;6.75;4.40;;;1.10;96.20;;;;;;490076;242;28956;-73
2023/01/18 10:41:54;;;;;;;6.45;4.90;;;1.10;96.60;;;;;;490073;242;27937;-73
2023/01/18 10:43:55;;;;;;;10.45;5.15;;;1.20;97.50;;;;;;490082;242;28064;-73
2023/01/18 10:45:56;;;;;;;10.60;4.35;;;1.20;97.10;;;;;;490086;242;27474;-73
2023/01/18 10:47:57;;;;;;;5.75;4.22;;;1.30;96.60;;;;;;490079;242;27609;-73
2023/01/18 10:49:59;;;;;;;6.18;4.90;;;1.30;95.80;;;;;;490071;242;27604;-74
2023/01/18 10:52:00;;;;;;;8.68;5.35;;;1.30;96.00;;;;;;490080;242;27498;-73
2023/01/18 10:54:01;;;;;;;7.40;4.90;;;1.30;96.40;;;;;;490057;242;27510;-73
2023/01/18 10:56:02;;;;;;;8.23;4.95;;;1.30;96.90;;;;;;490069;242;27580;-73
2023/01/18 10:58:04;;;;;;;7.05;4.70;;;1.30;96.40;;;;;;490086;242;27529;-73
2023/01/18 11:00:11;;;;;;;9.00;4.68;;;1.20;96.20;;;;;;490082;242;27521;-73
2023/01/18 11:02:06;;;;;;;8.70;5.05;;;1.10;96.80;;;;;;489562;242;27568;-73
2023/01/18 11:04:08;;;;;;;11.60;4.50;;;1.20;96.70;;;;;;490078;242;27632;-73